Terminal Aerodrome Forecast
Issued by NWS

Home | Current Version | Previous Version | Text Only | Print | Product List | Glossary On
Versions: 1 2 3 4 5 6 7 8 9 10 11 12 13 14
029
FTUS43 KMQT 102321
TAFIWD
TAF
KIWD 102321Z 1100/1124 31006KT P6SM VCSH BKN024
      TEMPO 1100/1104 4SM -SHSN BKN020
     FM111200 29006KT 5SM -SHSN BKN018
     FM111500 27007KT P6SM VCSH SCT022
     FM111700 27007KT P6SM SCT070
      AMD LTD TO CLD VIS AND WIND=

USA.gov is the U.S. government's official web portal to all federal, state and local government web resources and services.